Time;durP1;ratioP1;P1;durP2;ratioP2;P2;SDS_P1;SDS_P2;PMS_P1;PMS_P2;Temp;Humidity;BMP_temperature;BMP_pressure;BME280_temperature;BME280_humidity;BME280_pressure;Samples;Min_cycle;Max_cycle;Signal;HPM_P1;HPM_P2
2023/12/21 00:00:35;;;;;;;12.23;1.92;;;;;;;8.90;100.00;100734.72;5080096;28;20262;-73
2023/12/21 00:03:00;;;;;;;18.63;2.38;;;;;;;8.90;100.00;100725.13;5075850;28;20040;-73
2023/12/21 00:05:26;;;;;;;17.45;2.35;;;;;;;8.89;100.00;100725.16;5081542;28;20343;-73
2023/12/21 00:07:51;;;;;;;7.90;1.60;;;;;;;8.90;100.00;100712.06;5076051;28;20297;-73
2023/12/21 00:10:16;;;;;;;17.58;2.33;;;;;;;8.92;100.00;100715.47;5079383;28;20429;-73
2023/12/21 00:12:42;;;;;;;12.05;1.40;;;;;;;8.92;100.00;100717.22;5058508;28;20044;-73
2023/12/21 00:15:08;;;;;;;9.93;1.77;;;;;;;8.95;100.00;100717.09;5073791;28;20036;-73
2023/12/21 00:17:33;;;;;;;10.07;2.30;;;;;;;8.96;100.00;100711.81;5095949;28;20032;-73
2023/12/21 00:19:58;;;;;;;9.93;1.80;;;;;;;8.93;100.00;100704.13;5091053;28;20043;-73
2023/12/21 00:22:24;;;;;;;13.52;3.28;;;;;;;8.93;100.00;100698.91;5094693;28;20099;-73
2023/12/21 00:24:49;;;;;;;16.55;3.22;;;;;;;8.93;100.00;100706.75;5096399;28;20213;-73
2023/12/21 00:27:14;;;;;;;11.43;2.42;;;;;;;8.94;100.00;100697.13;5094779;28;20327;-73
2023/12/21 00:29:40;;;;;;;9.57;2.17;;;;;;;8.92;100.00;100673.69;5083965;28;20335;-73
2023/12/21 00:32:06;;;;;;;13.55;2.42;;;;;;;8.92;100.00;100676.28;5081681;28;20044;-73
2023/12/21 00:34:31;;;;;;;12.40;1.85;;;;;;;8.89;100.00;100658.09;5079189;28;20074;-72
2023/12/21 00:36:56;;;;;;;9.60;2.10;;;;;;;8.92;100.00;100659.78;5075798;28;20294;-73
2023/12/21 00:39:21;;;;;;;11.05;2.25;;;;;;;8.93;100.00;100662.34;5074992;28;20059;-73
2023/12/21 00:41:47;;;;;;;19.77;2.80;;;;;;;8.92;100.00;100652.78;5093928;28;20270;-73
2023/12/21 00:44:12;;;;;;;8.05;2.72;;;;;;;8.92;100.00;100644.94;5084780;28;20324;-73
2023/12/21 00:46:38;;;;;;;24.20;3.30;;;;;;;8.94;100.00;100652.72;5076530;28;20297;-73
2023/12/21 00:49:03;;;;;;;13.35;2.50;;;;;;;8.93;100.00;100636.22;5075247;28;20215;-73
2023/12/21 00:51:28;;;;;;;13.45;2.53;;;;;;;8.92;100.00;100637.13;5076216;28;20066;-73
2023/12/21 00:53:54;;;;;;;14.70;2.42;;;;;;;8.93;100.00;100625.78;5082294;28;20347;-73
2023/12/21 00:56:19;;;;;;;10.02;2.72;;;;;;;8.95;100.00;100617.84;5094671;28;20046;-73
2023/12/21 00:58:44;;;;;;;12.40;2.15;;;;;;;8.91;100.00;100624.94;5089829;28;20062;-73
2023/12/21 01:01:10;;;;;;;16.58;2.33;;;;;;;8.90;100.00;100610.22;5075864;28;20040;-73
2023/12/21 01:03:35;;;;;;;19.52;1.92;;;;;;;8.90;100.00;100606.75;5072047;28;20032;-73
2023/12/21 01:06:00;;;;;;;8.90;1.83;;;;;;;8.90;100.00;100625.88;5080710;28;20069;-73
2023/12/21 01:08:25;;;;;;;11.70;2.45;;;;;;;8.89;100.00;100608.50;5068955;28;20033;-73
2023/12/21 01:10:51;;;;;;;9.85;2.13;;;;;;;8.91;100.00;100600.59;5055256;28;20033;-73
2023/12/21 01:13:16;;;;;;;17.83;2.33;;;;;;;8.92;100.00;100602.31;5055074;28;20037;-73
2023/12/21 01:15:42;;;;;;;14.95;2.30;;;;;;;8.91;100.00;100601.44;5063801;28;20032;-73
2023/12/21 01:18:07;;;;;;;11.48;2.05;;;;;;;8.90;100.00;100586.69;5095109;28;20070;-73
2023/12/21 01:20:32;;;;;;;10.93;2.20;;;;;;;8.90;100.00;100584.09;5095330;28;20039;-73
2023/12/21 01:22:58;;;;;;;13.07;2.50;;;;;;;8.93;100.00;100585.72;5095142;28;20235;-73
2023/12/21 01:25:23;;;;;;;16.48;2.47;;;;;;;8.92;100.00;100569.22;5095093;28;20345;-73
2023/12/21 01:27:48;;;;;;;14.80;2.80;;;;;;;8.93;100.00;100581.38;5096073;28;20032;-73
2023/12/21 01:30:14;;;;;;;9.52;2.20;;;;;;;8.92;100.00;100586.66;5094803;28;20204;-73
2023/12/21 01:32:39;;;;;;;17.27;2.33;;;;;;;8.92;100.00;100591.88;5095528;28;20273;-73
2023/12/21 01:35:04;;;;;;;7.32;2.10;;;;;;;8.95;100.00;100576.06;5094794;28;20032;-73
2023/12/21 01:37:30;;;;;;;11.88;2.33;;;;;;;8.92;100.00;100556.16;5095226;28;20081;-73
2023/12/21 01:39:55;;;;;;;12.95;3.13;;;;;;;8.93;100.00;100577.88;5094765;28;20090;-73
2023/12/21 01:42:21;;;;;;;11.23;2.72;;;;;;;8.93;100.00;100576.16;5093623;28;20216;-73
2023/12/21 01:44:46;;;;;;;10.75;2.38;;;;;;;8.93;100.00;100570.06;5094951;28;20040;-72
2023/12/21 01:47:12;;;;;;;14.25;2.47;;;;;;;8.92;100.00;100582.25;5091340;28;20073;-73
2023/12/21 01:49:39;;;;;;;9.70;2.08;;;;;;;8.92;100.00;100571.81;5092880;28;20028;-73
2023/12/21 01:52:06;;;;;;;9.23;2.38;;;;;;;8.92;100.00;100557.91;5090245;28;20028;-73
2023/12/21 01:54:31;;;;;;;15.63;2.78;;;;;;;8.91;100.00;100556.19;5074366;28;20243;-73
2023/12/21 01:56:57;;;;;;;13.63;2.60;;;;;;;8.94;100.00;100538.66;5074163;28;20037;-73
2023/12/21 01:59:22;;;;;;;8.15;1.92;;;;;;;8.93;100.00;100541.31;5083560;28;20059;-73
2023/12/21 02:04:44;;;;;;;17.45;3.22;;;;;;;8.93;100.00;100542.19;5156162;22;20064;-75
2023/12/21 02:07:10;;;;;;;10.20;2.28;;;;;;;8.94;100.00;100537.81;5044071;28;20036;-74
2023/12/21 02:09:35;;;;;;;18.35;3.03;;;;;;;8.94;100.00;100536.03;5036573;28;20033;-74
2023/12/21 02:12:01;;;;;;;12.98;2.45;;;;;;;8.94;100.00;100533.44;5053640;28;20522;-74
2023/12/21 02:14:26;;;;;;;18.63;2.63;;;;;;;8.95;100.00;100539.50;5040467;28;20198;-74
2023/12/21 02:16:59;;;;;;;14.50;2.25;;;;;;;8.95;100.00;100514.25;5053649;28;20079;-74
2023/12/21 02:19:25;;;;;;;18.05;2.10;;;;;;;8.95;100.00;100522.09;5041616;28;20036;-74
2023/12/21 02:21:54;;;;;;;17.17;2.63;;;;;;;8.95;100.00;100526.44;5052494;28;20036;-73
2023/12/21 02:24:19;;;;;;;;;;;;;;;8.95;100.00;100508.16;5054200;28;20033;-72
2023/12/21 02:26:44;;;;;;;12.75;2.40;;;;;;;8.94;100.00;100507.31;5050606;28;19956;-74
2023/12/21 02:29:10;;;;;;;12.77;2.25;;;;;;;8.95;100.00;100522.09;5051683;28;20383;-75
2023/12/21 02:31:36;;;;;;;13.75;2.35;;;;;;;8.95;100.00;100503.81;5053860;28;20063;-74
2023/12/21 02:34:02;;;;;;;19.35;3.30;;;;;;;8.96;100.00;100487.22;5049206;28;20062;-74
2023/12/21 02:36:27;;;;;;;15.38;2.95;;;;;;;8.95;100.00;100492.47;5052037;28;20029;-74
2023/12/21 02:38:53;;;;;;;17.15;2.78;;;;;;;8.95;100.00;100498.59;5046019;28;20064;-74
2023/12/21 02:41:19;;;;;;;14.48;3.10;;;;;;;8.96;100.00;100488.97;5045742;28;20101;-74
2023/12/21 02:43:45;;;;;;;21.90;2.65;;;;;;;8.96;100.00;100495.03;5049713;28;20048;-74
2023/12/21 02:46:10;;;;;;;16.30;2.70;;;;;;;8.96;100.00;100484.59;5050340;28;20045;-74
2023/12/21 02:48:35;;;;;;;13.82;3.15;;;;;;;8.95;100.00;100498.59;5046314;28;20049;-74
2023/12/21 02:51:01;;;;;;;22.15;2.38;;;;;;;8.97;100.00;100491.53;5033773;28;20391;-74
2023/12/21 02:53:26;;;;;;;23.80;3.03;;;;;;;8.96;100.00;100481.97;5035072;28;20107;-75
2023/12/21 02:55:51;;;;;;;16.90;3.10;;;;;;;8.97;100.00;100461.97;5052133;28;20417;-72
2023/12/21 02:58:17;;;;;;;20.52;3.35;;;;;;;8.95;100.00;100443.72;5052971;28;20044;-72
2023/12/21 03:00:42;;;;;;;20.80;3.05;;;;;;;8.93;100.00;100435.13;5039927;28;20107;-72
2023/12/21 03:03:08;;;;;;;15.18;2.53;;;;;;;8.95;100.00;100425.47;5055299;28;20033;-72
2023/12/21 03:05:33;;;;;;;21.55;2.97;;;;;;;8.95;100.00;100421.97;5037665;28;20049;-72
2023/12/21 03:07:58;;;;;;;14.73;2.28;;;;;;;8.93;100.00;100427.28;5035467;28;20315;-72
2023/12/21 03:10:24;;;;;;;16.17;2.55;;;;;;;8.94;100.00;100399.41;5036599;28;20045;-72
2023/12/21 03:12:49;;;;;;;13.73;2.17;;;;;;;8.94;100.00;100402.00;5037605;28;20060;-72
2023/12/21 03:15:15;;;;;;;14.40;2.65;;;;;;;8.93;100.00;100393.34;5037620;28;20052;-72
2023/12/21 03:17:40;;;;;;;16.40;3.15;;;;;;;8.93;100.00;100385.50;5031546;28;20271;-72
2023/12/21 03:20:07;;;;;;;12.85;3.03;;;;;;;8.94;100.00;100386.34;5018509;28;20034;-72
2023/12/21 03:22:34;;;;;;;13.57;2.70;;;;;;;8.95;100.00;100377.56;5017752;28;20069;-72
2023/12/21 03:24:59;;;;;;;18.65;2.95;;;;;;;8.94;100.00;100347.16;5017581;28;20029;-72
2023/12/21 03:27:24;;;;;;;16.38;3.25;;;;;;;8.95;100.00;100368.00;5017886;28;20279;-72
2023/12/21 03:29:50;;;;;;;13.48;2.67;;;;;;;8.98;100.00;100378.28;5019005;28;20290;-71
2023/12/21 03:32:15;;;;;;;17.80;2.47;;;;;;;9.01;100.00;100372.13;5022974;28;20119;-71
2023/12/21 03:34:40;;;;;;;15.05;2.95;;;;;;;9.05;100.00;100388.50;5033118;28;20033;-71
2023/12/21 03:37:06;;;;;;;9.70;2.20;;;;;;;9.06;100.00;100371.91;5020983;28;20037;-72
2023/12/21 03:39:33;;;;;;;15.45;2.58;;;;;;;9.10;100.00;100376.09;5025748;28;20128;-73
2023/12/21 03:41:59;;;;;;;18.17;2.85;;;;;;;9.09;100.00;100362.19;5020420;28;20043;-74
2023/12/21 03:44:24;;;;;;;13.90;2.10;;;;;;;9.09;100.00;100340.44;5036457;28;20037;-73
2023/12/21 03:46:50;;;;;;;11.23;2.70;;;;;;;9.09;100.00;100338.66;5035022;28;20037;-73
2023/12/21 03:49:15;;;;;;;21.08;3.00;;;;;;;9.10;100.00;100340.38;5026991;28;20120;-73
2023/12/21 03:51:40;;;;;;;15.07;2.45;;;;;;;9.12;100.00;100327.25;5017005;28;20352;-71
2023/12/21 03:54:06;;;;;;;11.40;1.95;;;;;;;9.12;100.00;100333.31;5034323;28;20304;-72
2023/12/21 03:56:31;;;;;;;15.70;2.67;;;;;;;9.09;100.00;100341.28;5036505;28;20037;-72
2023/12/21 03:58:56;;;;;;;13.73;2.58;;;;;;;9.10;100.00;100327.31;5035723;28;20175;-72
2023/12/21 04:01:25;;;;;;;13.38;2.33;;;;;;;9.11;100.00;100322.94;5037060;28;20033;-72
2023/12/21 04:03:51;;;;;;;;;;;;;;;9.09;100.00;100299.47;5036077;28;20368;-72
2023/12/21 04:06:16;;;;;;;9.95;1.75;;;;;;;9.10;100.00;100308.19;5036731;28;19917;-72
2023/12/21 04:08:41;;;;;;;10.38;2.17;;;;;;;9.09;100.00;100293.41;5036016;28;20259;-72
2023/12/21 04:11:07;;;;;;;11.70;2.40;;;;;;;9.07;100.00;100296.09;5036532;28;20314;-72
2023/12/21 04:13:32;;;;;;;11.23;2.10;;;;;;;9.08;100.00;100282.13;5027739;28;20038;-72
2023/12/21 04:15:57;;;;;;;12.27;2.10;;;;;;;9.09;100.00;100280.34;5034350;28;20056;-72
2023/12/21 04:18:23;;;;;;;15.07;2.15;;;;;;;9.09;100.00;100275.13;5027578;28;20036;-72
2023/12/21 04:20:48;;;;;;;12.20;1.90;;;;;;;9.08;100.00;100263.84;5035379;28;20229;-73
2023/12/21 04:23:13;;;;;;;9.63;2.08;;;;;;;9.07;100.00;100243.00;5032176;28;20037;-73
2023/12/21 04:25:39;;;;;;;11.55;1.83;;;;;;;9.07;100.00;100251.69;5022814;28;20036;-73
2023/12/21 04:28:04;;;;;;;17.20;2.95;;;;;;;9.06;100.00;100238.69;5014839;28;20038;-73
2023/12/21 04:30:30;;;;;;;15.60;2.05;;;;;;;9.06;100.00;100223.00;5036154;28;20356;-73
2023/12/21 04:32:55;;;;;;;11.60;1.98;;;;;;;9.07;100.00;100224.72;5035947;28;20037;-73
2023/12/21 04:35:20;;;;;;;11.93;2.22;;;;;;;9.07;100.00;100227.34;5021100;28;20057;-73
2023/12/21 04:37:46;;;;;;;12.80;2.30;;;;;;;9.08;100.00;100242.06;5016160;28;20400;-73
2023/12/21 04:40:11;;;;;;;7.55;2.08;;;;;;;9.08;100.00;100240.34;5016914;28;20041;-73
2023/12/21 04:42:37;;;;;;;12.80;2.08;;;;;;;9.05;100.00;100237.84;5016215;28;20045;-73
2023/12/21 04:45:02;;;;;;;17.75;2.70;;;;;;;9.03;100.00;100232.69;5016489;28;20041;-73
2023/12/21 04:47:28;;;;;;;15.15;2.03;;;;;;;9.00;100.00;100204.13;5016358;28;20038;-73
2023/12/21 04:49:53;;;;;;;12.55;2.08;;;;;;;8.99;100.00;100223.31;5023993;28;20264;-73
2023/12/21 04:52:18;;;;;;;15.95;2.15;;;;;;;8.99;100.00;100215.47;5035694;28;20389;-73
2023/12/21 04:54:44;;;;;;;11.00;1.95;;;;;;;8.98;100.00;100192.84;5033642;28;20100;-73
2023/12/21 04:57:09;;;;;;;14.57;1.83;;;;;;;8.98;100.00;100218.13;5034785;28;20243;-73
2023/12/21 04:59:39;;;;;;;8.20;2.00;;;;;;;8.99;100.00;100227.69;5032753;28;20045;-73
2023/12/21 05:02:04;;;;;;;12.82;2.35;;;;;;;9.00;100.00;100213.69;5031789;28;20155;-73
2023/12/21 05:04:30;;;;;;;15.82;2.00;;;;;;;9.02;100.00;100198.78;5026763;28;20563;-73
2023/12/21 05:06:56;;;;;;;15.25;2.35;;;;;;;9.04;100.00;100199.59;5015456;28;20038;-73
2023/12/21 05:09:22;;;;;;;9.80;1.92;;;;;;;9.06;100.00;100176.88;5015842;28;20107;-73
2023/12/21 05:11:47;;;;;;;14.85;2.47;;;;;;;9.05;100.00;100150.81;5015600;28;20339;-73
2023/12/21 05:14:13;;;;;;;11.80;2.08;;;;;;;9.02;100.00;100149.16;5022757;28;20339;-73
2023/12/21 05:16:42;;;;;;;11.38;2.00;;;;;;;9.02;100.00;100144.81;5034590;28;20147;-73
2023/12/21 05:19:08;;;;;;;8.98;2.10;;;;;;;8.99;100.00;100146.72;5033702;28;20374;-73
2023/12/21 05:21:33;;;;;;;17.52;2.55;;;;;;;8.99;100.00;100154.56;5034998;28;20045;-73
2023/12/21 05:23:59;;;;;;;7.30;1.60;;;;;;;8.96;100.00;100170.34;5034916;28;20043;-73
2023/12/21 05:26:24;;;;;;;13.13;2.10;;;;;;;8.94;100.00;100172.19;5026217;28;20339;-73
2023/12/21 05:28:50;;;;;;;13.70;2.38;;;;;;;8.92;100.00;100177.47;5016390;28;20389;-73
2023/12/21 05:31:24;;;;;;;10.07;1.92;;;;;;;8.92;100.00;100160.97;5016496;28;20552;-73
2023/12/21 05:33:51;;;;;;;14.68;2.35;;;;;;;8.92;100.00;100164.41;5024056;28;20312;-73
2023/12/21 05:36:24;;;;;;;12.20;1.83;;;;;;;8.94;100.00;100153.91;5032730;28;20033;-73
2023/12/21 05:38:50;;;;;;;10.48;2.28;;;;;;;8.92;100.00;100174.03;5034695;28;20179;-73
2023/12/21 05:41:16;;;;;;;12.95;2.53;;;;;;;8.97;100.00;100159.00;5034514;28;20501;-73
2023/12/21 05:43:42;;;;;;;13.77;2.13;;;;;;;8.93;100.00;100142.63;5033282;28;20037;-73
2023/12/21 05:46:08;;;;;;;13.00;2.88;;;;;;;8.91;100.00;100115.69;5033716;28;20375;-73
2023/12/21 05:48:33;;;;;;;11.52;1.77;;;;;;;8.91;100.00;100133.97;5033607;28;20099;-73
2023/12/21 05:50:58;;;;;;;15.45;2.42;;;;;;;8.92;100.00;100130.47;5030009;28;20037;-73
2023/12/21 05:53:24;;;;;;;18.75;2.60;;;;;;;8.95;100.00;100127.72;5034381;28;20069;-73
2023/12/21 05:55:49;;;;;;;12.98;2.50;;;;;;;8.97;100.00;100119.81;5033460;28;20041;-73
2023/12/21 05:58:14;;;;;;;11.65;2.08;;;;;;;9.00;100.00;100140.56;5034594;28;20097;-73
2023/12/21 06:00:40;;;;;;;6.75;1.58;;;;;;;9.01;100.00;100117.00;5030370;28;20300;-73
2023/12/21 06:03:05;;;;;;;12.23;2.70;;;;;;;9.05;100.00;100117.69;5034019;28;20048;-73
2023/12/21 06:05:31;;;;;;;12.93;1.98;;;;;;;9.09;100.00;100115.78;5015750;28;20363;-73
2023/12/21 06:07:57;;;;;;;12.35;1.58;;;;;;;9.13;100.00;100114.72;5031024;28;20562;-73
2023/12/21 06:10:22;;;;;;;14.00;2.40;;;;;;;9.16;100.00;100086.69;5034604;28;20108;-73
2023/12/21 06:12:47;;;;;;;7.15;1.40;;;;;;;9.18;100.00;100068.34;5033029;28;20079;-73
2023/12/21 06:15:13;;;;;;;8.30;1.65;;;;;;;9.22;100.00;100080.34;5033984;28;20067;-73
2023/12/21 06:17:38;;;;;;;10.55;2.00;;;;;;;9.22;100.00;100069.88;5031942;28;20215;-73
2023/12/21 06:20:04;;;;;;;14.15;2.72;;;;;;;9.23;100.00;100069.81;5034014;28;20318;-73
2023/12/21 06:22:30;;;;;;;15.18;1.90;;;;;;;9.28;100.00;100053.06;5024839;28;20113;-73
2023/12/21 06:24:55;;;;;;;9.35;2.20;;;;;;;9.27;100.00;100033.94;5014273;28;20076;-73
2023/12/21 06:27:21;;;;;;;10.65;1.85;;;;;;;9.29;100.00;100032.09;5020798;28;20026;-73
2023/12/21 06:29:47;;;;;;;18.45;2.65;;;;;;;9.30;100.00;100044.25;5020666;28;20040;-73
2023/12/21 06:32:12;;;;;;;10.15;1.95;;;;;;;9.32;100.00;100037.19;5017049;28;20398;-73
2023/12/21 06:34:37;;;;;;;8.13;1.90;;;;;;;9.33;100.00;100045.84;5014826;28;20033;-73
2023/12/21 06:37:03;;;;;;;13.63;1.83;;;;;;;9.33;100.00;100036.28;5014500;28;20033;-73
2023/12/21 06:39:29;;;;;;;10.52;1.60;;;;;;;9.35;100.00;100025.72;5036580;28;20390;-73
2023/12/21 06:41:54;;;;;;;11.73;1.63;;;;;;;9.37;100.00;100029.13;5027281;28;20148;-73
2023/12/21 06:44:20;;;;;;;18.38;2.55;;;;;;;9.36;100.00;100036.09;5023784;28;20322;-73
2023/12/21 06:46:46;;;;;;;8.60;2.03;;;;;;;9.38;100.00;100036.03;5037555;28;20108;-73
2023/12/21 06:49:12;;;;;;;12.88;2.00;;;;;;;9.35;100.00;100021.38;5035943;28;20356;-73
2023/12/21 06:51:37;;;;;;;12.13;1.77;;;;;;;9.37;100.00;100032.59;5037068;28;20310;-73
2023/12/21 06:54:04;;;;;;;17.52;2.47;;;;;;;9.38;100.00;100013.34;5027611;28;20073;-73
2023/12/21 06:56:29;;;;;;;8.40;1.65;;;;;;;9.37;100.00;99987.31;5030955;28;20310;-73
2023/12/21 06:58:54;;;;;;;9.85;1.70;;;;;;;9.37;100.00;99987.31;5034243;28;20041;-73
2023/12/21 07:01:25;;;;;;;7.03;1.67;;;;;;;9.35;100.00;99995.22;5036096;28;20041;-74
2023/12/21 07:03:50;;;;;;;14.60;2.35;;;;;;;9.32;100.00;99977.09;5035044;28;20049;-73
2023/12/21 07:06:16;;;;;;;13.38;2.20;;;;;;;9.32;100.00;99974.47;5036292;28;20390;-73
2023/12/21 07:08:42;;;;;;;10.65;2.13;;;;;;;9.33;100.00;99996.22;5036616;28;20033;-73
2023/12/21 07:11:07;;;;;;;19.83;1.95;;;;;;;9.32;100.00;99978.84;5037299;28;20034;-73
2023/12/21 07:13:33;;;;;;;9.25;1.98;;;;;;;9.29;100.00;99972.00;5037601;28;20067;-73
2023/12/21 07:15:58;;;;;;;12.85;2.70;;;;;;;9.27;100.00;99957.31;5036932;28;20044;-73
2023/12/21 07:18:24;;;;;;;13.23;2.25;;;;;;;9.23;100.00;99964.47;5031940;28;20101;-73
2023/12/21 07:20:49;;;;;;;17.17;2.40;;;;;;;9.25;100.00;99959.19;5026958;28;20278;-73
2023/12/21 07:23:14;;;;;;;17.27;3.15;;;;;;;9.26;100.00;99937.34;5026048;28;20038;-73
2023/12/21 07:25:41;;;;;;;22.65;2.58;;;;;;;9.25;100.00;99957.41;5027654;28;20038;-73
2023/12/21 07:28:06;;;;;;;9.90;2.20;;;;;;;9.25;100.00;99969.63;5027949;28;20083;-73
2023/12/21 07:30:32;;;;;;;21.75;2.50;;;;;;;9.20;100.00;99954.16;5024981;28;20080;-73
2023/12/21 07:32:57;;;;;;;15.13;2.47;;;;;;;9.16;100.00;99939.56;5029955;28;20236;-73
2023/12/21 07:35:23;;;;;;;15.85;2.00;;;;;;;9.16;100.00;99940.41;5027775;28;20044;-73
2023/12/21 07:37:48;;;;;;;16.08;2.10;;;;;;;9.11;100.00;99942.38;5026902;28;20034;-73
2023/12/21 07:40:14;;;;;;;13.60;2.40;;;;;;;9.12;100.00;99930.19;5025525;28;20440;-73
2023/12/21 07:42:39;;;;;;;13.65;2.55;;;;;;;9.14;100.00;99936.19;5027709;28;20222;-73
2023/12/21 07:45:05;;;;;;;17.92;2.90;;;;;;;9.15;100.00;99943.97;5027529;28;20025;-73
2023/12/21 07:47:31;;;;;;;12.38;1.70;;;;;;;9.18;100.00;99933.34;5024456;28;20040;-73
2023/12/21 07:49:56;;;;;;;9.93;1.88;;;;;;;9.17;100.00;99905.53;5029294;28;20348;-73
2023/12/21 07:52:22;;;;;;;11.40;1.75;;;;;;;9.18;100.00;99930.72;5029435;28;20040;-73
2023/12/21 07:54:47;;;;;;;19.40;3.03;;;;;;;9.22;100.00;99936.63;5030522;28;20099;-73
2023/12/21 07:57:14;;;;;;;15.50;2.15;;;;;;;9.23;100.00;99925.28;5030294;28;20148;-73
2023/12/21 07:59:39;;;;;;;12.35;2.00;;;;;;;9.23;100.00;99915.66;5031257;28;20041;-73
2023/12/21 08:02:05;;;;;;;18.00;2.70;;;;;;;9.23;100.00;99920.91;5027450;28;20041;-73
2023/12/21 08:04:31;;;;;;;13.07;2.13;;;;;;;9.26;100.00;99919.91;5029894;28;20046;-73
2023/12/21 08:06:56;;;;;;;14.60;2.50;;;;;;;9.30;100.00;99892.69;5032197;28;20061;-73
2023/12/21 08:09:22;;;;;;;16.48;2.53;;;;;;;9.32;100.00;99903.91;5034087;28;20052;-73
2023/12/21 08:11:47;;;;;;;13.52;2.20;;;;;;;9.33;100.00;99886.47;5034027;28;20063;-73
2023/12/21 08:14:13;;;;;;;12.57;2.20;;;;;;;9.36;100.00;99907.22;5030574;28;20057;-73
2023/12/21 08:16:39;;;;;;;8.52;1.88;;;;;;;9.37;100.00;99914.16;5034647;28;20228;-73
2023/12/21 08:19:04;;;;;;;12.73;2.20;;;;;;;9.40;100.00;99911.38;5034507;28;20056;-73
2023/12/21 08:21:30;;;;;;;11.05;2.05;;;;;;;9.44;100.00;99889.41;5033950;28;20032;-73
2023/12/21 08:23:55;;;;;;;7.45;1.95;;;;;;;9.48;100.00;99892.66;5032733;28;20351;-73
2023/12/21 08:26:21;;;;;;;11.07;1.50;;;;;;;9.48;100.00;99908.34;5035863;28;20037;-73
2023/12/21 08:28:46;;;;;;;17.40;2.42;;;;;;;9.49;100.00;99895.22;5031063;28;20057;-73
2023/12/21 08:31:22;;;;;;;9.93;1.58;;;;;;;9.55;100.00;99907.13;5023801;28;20048;-73
2023/12/21 08:33:47;;;;;;;10.68;1.85;;;;;;;9.56;100.00;99914.06;5028346;28;20092;-74
2023/12/21 08:36:13;;;;;;;11.73;1.80;;;;;;;9.58;100.00;99917.44;5015741;28;20037;-73
2023/12/21 08:38:38;;;;;;;20.55;2.65;;;;;;;9.61;100.00;99910.28;5024553;28;20037;-73
2023/12/21 08:41:03;;;;;;;11.60;2.08;;;;;;;9.61;100.00;99884.13;5033930;28;20519;-73
2023/12/21 08:43:30;;;;;;;13.13;2.35;;;;;;;9.61;100.00;99902.44;5035335;28;20350;-73
2023/12/21 08:45:55;;;;;;;12.63;2.15;;;;;;;9.61;100.00;99885.91;5034637;28;20104;-73
2023/12/21 08:48:20;;;;;;;13.40;1.95;;;;;;;9.60;100.00;99894.66;5033482;28;20342;-73
2023/12/21 08:50:46;;;;;;;16.65;2.20;;;;;;;9.61;100.00;99894.59;5027445;28;20348;-73
2023/12/21 08:53:11;;;;;;;13.23;2.60;;;;;;;9.65;100.00;99897.88;5028134;28;20037;-73
2023/12/21 08:55:37;;;;;;;8.93;2.03;;;;;;;9.64;100.00;99885.75;5035083;28;20040;-74
2023/12/21 08:58:02;;;;;;;8.02;1.80;;;;;;;9.65;100.00;99869.13;5034000;28;20033;-73
2023/12/21 09:00:27;;;;;;;12.52;2.60;;;;;;;9.67;100.00;99913.50;5031143;28;20045;-73
2023/12/21 09:02:53;;;;;;;18.25;2.47;;;;;;;9.68;100.00;99879.44;5031382;28;20037;-73
2023/12/21 09:05:18;;;;;;;11.02;1.92;;;;;;;9.74;100.00;99899.19;5031267;28;20113;-73
2023/12/21 09:07:44;;;;;;;23.42;1.88;;;;;;;9.79;100.00;99871.03;5035549;28;20103;-73
2023/12/21 09:10:10;;;;;;;12.70;1.80;;;;;;;9.82;100.00;99890.94;5034147;28;20041;-73
2023/12/21 09:12:35;;;;;;;14.93;1.90;;;;;;;9.84;100.00;99896.94;5033802;28;20101;-73
2023/12/21 09:15:01;;;;;;;13.82;2.38;;;;;;;9.84;100.00;99931.78;5033280;28;20041;-73
2023/12/21 09:17:26;;;;;;;9.40;1.92;;;;;;;9.85;100.00;99903.84;5033878;28;20084;-73
2023/12/21 09:19:51;;;;;;;6.60;1.27;;;;;;;9.87;100.00;99899.38;5033661;28;20303;-73
2023/12/21 09:22:17;;;;;;;11.43;1.52;;;;;;;9.86;100.00;99887.22;5027726;28;20037;-73
2023/12/21 09:24:42;;;;;;;4.38;1.10;;;;;;;9.86;100.00;99884.59;5035179;28;20033;-73
2023/12/21 09:27:07;;;;;;;8.73;1.50;;;;;;;9.86;100.00;99869.78;5028681;28;20248;-74
2023/12/21 09:29:33;;;;;;;7.10;1.55;;;;;;;9.88;100.00;99869.72;5029692;28;20367;-73
2023/12/21 09:31:59;;;;;;;4.22;1.15;;;;;;;9.90;100.00;99892.22;5032428;28;20052;-74
2023/12/21 09:34:24;;;;;;;9.23;1.17;;;;;;;9.90;100.00;99902.69;5031121;28;20048;-74
2023/12/21 09:36:52;;;;;;;11.70;2.47;;;;;;;9.90;100.00;99857.38;5031028;28;20243;-73
2023/12/21 09:39:17;;;;;;;10.88;1.80;;;;;;;9.89;100.00;99871.38;5031915;28;20534;-73
2023/12/21 09:41:43;;;;;;;15.38;1.83;;;;;;;9.89;100.00;99876.59;5031565;28;20041;-73
2023/12/21 09:44:11;;;;;;;9.30;1.75;;;;;;;9.91;100.00;99872.97;5031670;28;20363;-73
2023/12/21 09:46:39;;;;;;;7.93;1.35;;;;;;;9.92;100.00;99874.69;5027794;28;20125;-73
2023/12/21 09:49:09;;;;;;;8.82;1.70;;;;;;;9.92;100.00;99879.91;5030063;28;20073;-73
2023/12/21 09:51:36;;;;;;;14.38;2.10;;;;;;;9.92;100.00;99866.84;5031156;28;20466;-73
2023/12/21 09:54:04;;;;;;;13.15;2.55;;;;;;;9.90;100.00;99860.00;5028544;28;20438;-73
2023/12/21 09:56:31;;;;;;;11.25;1.75;;;;;;;9.90;100.00;99868.69;5029722;28;20112;-73
2023/12/21 09:58:58;;;;;;;11.45;1.92;;;;;;;9.89;100.00;99900.97;5033215;28;20041;-73
2023/12/21 10:01:23;;;;;;;11.45;1.67;;;;;;;9.91;100.00;99879.97;5032378;28;20061;-73
2023/12/21 10:03:48;;;;;;;13.95;2.70;;;;;;;9.92;100.00;99881.69;5030404;28;20355;-73
2023/12/21 10:06:15;;;;;;;13.00;2.33;;;;;;;9.93;100.00;99875.50;5033396;28;20033;-73
2023/12/21 10:08:41;;;;;;;13.40;2.33;;;;;;;9.94;100.00;99901.59;5030787;28;20329;-73
2023/12/21 10:11:07;;;;;;;15.38;2.50;;;;;;;9.93;100.00;99878.13;5031948;28;20324;-73
2023/12/21 10:13:33;;;;;;;9.15;1.70;;;;;;;9.92;100.00;99852.91;5029903;28;20090;-73
2023/12/21 10:15:59;;;;;;;16.10;2.33;;;;;;;9.95;100.00;99860.59;5035106;28;20085;-73
2023/12/21 10:18:26;;;;;;;13.02;1.80;;;;;;;9.94;100.00;99872.81;5035634;28;20017;-73
2023/12/21 10:20:53;;;;;;;10.55;2.65;;;;;;;9.94;100.00;99882.44;5029617;28;21019;-73
2023/12/21 10:23:19;;;;;;;16.40;2.47;;;;;;;9.93;100.00;99857.22;5037292;28;20082;-74
2023/12/21 10:25:46;;;;;;;17.10;2.50;;;;;;;9.90;100.00;99844.31;5037604;28;20053;-74
2023/12/21 10:28:11;;;;;;;14.38;2.47;;;;;;;9.91;100.00;99866.91;5031603;28;20029;-74
2023/12/21 10:30:37;;;;;;;12.73;2.30;;;;;;;9.94;100.00;99862.34;5031087;28;20411;-73
2023/12/21 10:33:03;;;;;;;19.40;2.63;;;;;;;9.93;100.00;99854.59;5041116;28;20044;-73
2023/12/21 10:35:29;;;;;;;20.58;2.88;;;;;;;9.93;100.00;99862.44;5028532;28;20049;-73
2023/12/21 10:37:54;;;;;;;19.30;2.97;;;;;;;9.91;100.00;99849.44;5030595;28;20059;-73
2023/12/21 10:40:22;;;;;;;12.23;1.98;;;;;;;9.89;100.00;99856.53;5030672;28;20037;-73
2023/12/21 10:42:48;;;;;;;11.75;2.90;;;;;;;9.89;100.00;99850.47;5031382;28;20335;-74
2023/12/21 10:45:16;;;;;;;19.77;2.38;;;;;;;9.87;100.00;99840.06;5031961;28;20132;-73
2023/12/21 10:47:48;;;;;;;18.77;2.38;;;;;;;9.88;100.00;99835.72;5019570;28;20025;-73
2023/12/21 10:50:15;;;;;;;26.65;3.78;;;;;;;9.88;100.00;99833.09;5031384;28;20428;-74
2023/12/21 10:52:43;;;;;;;17.10;2.65;;;;;;;9.89;100.00;99845.22;5032586;28;20109;-73
2023/12/21 10:55:10;;;;;;;19.60;2.70;;;;;;;9.89;100.00;99847.84;5039053;28;20056;-74
2023/12/21 10:57:40;;;;;;;12.35;2.30;;;;;;;9.89;100.00;99837.38;5031968;28;20033;-74
2023/12/21 11:00:15;;;;;;;22.42;2.63;;;;;;;9.91;100.00;99862.50;5044439;28;20032;-73
2023/12/21 11:02:46;;;;;;;21.27;3.25;;;;;;;9.93;100.00;99875.50;5051211;28;20041;-73
2023/12/21 11:05:19;;;;;;;12.65;2.83;;;;;;;9.91;100.00;99844.22;5046573;28;20232;-74
2023/12/21 11:07:48;;;;;;;20.15;3.60;;;;;;;9.92;100.00;99843.28;5032970;28;20034;-73
2023/12/21 11:10:14;;;;;;;13.40;2.17;;;;;;;9.94;100.00;99837.97;5032848;28;20042;-73
2023/12/21 11:12:40;;;;;;;15.27;2.50;;;;;;;9.94;100.00;99835.38;5033798;28;20037;-73
2023/12/21 11:15:05;;;;;;;9.93;1.95;;;;;;;9.95;100.00;99832.69;5033734;28;20352;-74
2023/12/21 11:17:32;;;;;;;14.38;2.50;;;;;;;9.96;100.00;99829.13;5034069;28;20037;-74